sensor_id;sensor_type;location;lat;lon;timestamp;pressure;altitude;pressure_sealevel;temperature;humidity
55664;BME280;41540;57.880;12.164;2023-07-28T00:09:26;99330.75;;;10.35;nan
55664;BME280;41540;57.880;12.164;2023-07-28T00:19:26;99294.50;;;10.09;nan
55664;BME280;41540;57.880;12.164;2023-07-28T00:29:27;99341.97;;;10.15;nan
55664;BME280;41540;57.880;12.164;2023-07-28T00:39:27;99348.00;;;9.87;nan
55664;BME280;41540;57.880;12.164;2023-07-28T00:49:27;99341.09;;;9.80;nan
55664;BME280;41540;57.880;12.164;2023-07-28T00:59:28;99218.59;;;9.10;nan
55664;BME280;41540;57.880;12.164;2023-07-28T01:09:36;99284.97;;;9.35;nan
55664;BME280;41540;57.880;12.164;2023-07-28T01:19:39;99321.19;;;9.60;nan
55664;BME280;41540;57.880;12.164;2023-07-28T01:29:39;99316.94;;;9.62;nan
55664;BME280;41540;57.880;12.164;2023-07-28T01:39:40;99222.00;;;8.90;nan
55664;BME280;41540;57.880;12.164;2023-07-28T01:49:40;99327.19;;;9.31;nan
55664;BME280;41540;57.880;12.164;2023-07-28T01:59:41;99270.31;;;9.31;nan
55664;BME280;41540;57.880;12.164;2023-07-28T02:09:41;99173.66;;;8.49;nan
55664;BME280;41540;57.880;12.164;2023-07-28T02:19:42;99300.41;;;9.11;nan
55664;BME280;41540;57.880;12.164;2023-07-28T02:29:42;99284.06;;;9.16;nan
55664;BME280;41540;57.880;12.164;2023-07-28T02:39:43;99284.88;;;8.98;nan
55664;BME280;41540;57.880;12.164;2023-07-28T02:49:44;99294.38;;;9.06;nan
55664;BME280;41540;57.880;12.164;2023-07-28T02:59:44;99292.66;;;9.08;nan
55664;BME280;41540;57.880;12.164;2023-07-28T03:09:44;99162.56;;;8.78;nan
55664;BME280;41540;57.880;12.164;2023-07-28T03:19:45;99236.78;;;9.70;nan
55664;BME280;41540;57.880;12.164;2023-07-28T03:29:45;99179.75;;;10.28;nan
55664;BME280;41540;57.880;12.164;2023-07-28T03:39:46;99217.59;;;12.01;nan
55664;BME280;41540;57.880;12.164;2023-07-28T03:49:46;99452.69;;;17.38;nan
55664;BME280;41540;57.880;12.164;2023-07-28T03:59:46;99728.03;;;19.72;nan
55664;BME280;41540;57.880;12.164;2023-07-28T04:09:47;99666.41;;;21.87;nan
55664;BME280;41540;57.880;12.164;2023-07-28T04:19:47;99179.94;;;23.29;nan
55664;BME280;41540;57.880;12.164;2023-07-28T04:29:48;99148.63;;;23.83;nan
55664;BME280;41540;57.880;12.164;2023-07-28T04:39:48;99165.59;;;24.38;nan
55664;BME280;41540;57.880;12.164;2023-07-28T04:49:48;99250.91;;;27.38;nan
55664;BME280;41540;57.880;12.164;2023-07-28T04:59:49;99275.91;;;29.88;nan
55664;BME280;41540;57.880;12.164;2023-07-28T05:09:49;99262.03;;;28.85;nan
55664;BME280;41540;57.880;12.164;2023-07-28T05:19:50;99241.50;;;30.27;nan
55664;BME280;41540;57.880;12.164;2023-07-28T05:29:51;99252.16;;;29.85;nan
55664;BME280;41540;57.880;12.164;2023-07-28T05:39:51;99188.50;;;30.44;nan
55664;BME280;41540;57.880;12.164;2023-07-28T05:49:52;99165.38;;;23.98;nan
55664;BME280;41540;57.880;12.164;2023-07-28T05:59:55;98891.00;;;20.05;nan
55664;BME280;41540;57.880;12.164;2023-07-28T06:09:56;98719.50;;;18.31;nan
55664;BME280;41540;57.880;12.164;2023-07-28T06:19:56;99679.84;;;17.63;nan
55664;BME280;41540;57.880;12.164;2023-07-28T06:29:56;99692.25;;;18.23;nan
55664;BME280;41540;57.880;12.164;2023-07-28T06:39:57;99680.50;;;18.05;nan
55664;BME280;41540;57.880;12.164;2023-07-28T06:49:57;99586.63;;;20.30;nan
55664;BME280;41540;57.880;12.164;2023-07-28T06:59:58;99694.06;;;24.71;nan
55664;BME280;41540;57.880;12.164;2023-07-28T07:10:00;99226.59;;;24.80;nan
55664;BME280;41540;57.880;12.164;2023-07-28T07:20:00;99068.50;;;21.25;nan
55664;BME280;41540;57.880;12.164;2023-07-28T07:30:01;98757.91;;;20.04;nan
55664;BME280;41540;57.880;12.164;2023-07-28T07:40:01;99266.81;;;26.24;nan
55664;BME280;41540;57.880;12.164;2023-07-28T07:50:03;99281.31;;;26.71;nan
55664;BME280;41540;57.880;12.164;2023-07-28T08:00:05;99299.00;;;27.83;nan
55664;BME280;41540;57.880;12.164;2023-07-28T08:10:06;99186.94;;;21.46;nan
55664;BME280;41540;57.880;12.164;2023-07-28T08:20:07;98842.50;;;19.18;nan
55664;BME280;41540;57.880;12.164;2023-07-28T08:30:08;98732.56;;;20.72;nan
55664;BME280;41540;57.880;12.164;2023-07-28T08:40:10;98786.13;;;20.71;nan
55664;BME280;41540;57.880;12.164;2023-07-28T08:50:11;98757.69;;;21.27;nan
55664;BME280;41540;57.880;12.164;2023-07-28T09:00:12;98981.34;;;21.47;nan
55664;BME280;41540;57.880;12.164;2023-07-28T09:10:17;99084.06;;;21.82;nan
55664;BME280;41540;57.880;12.164;2023-07-28T09:20:18;98995.69;;;20.34;nan
55664;BME280;41540;57.880;12.164;2023-07-28T09:30:18;99091.47;;;22.25;nan
55664;BME280;41540;57.880;12.164;2023-07-28T09:40:21;99234.16;;;23.04;nan
55664;BME280;41540;57.880;12.164;2023-07-28T09:50:23;99023.09;;;21.72;nan
55664;BME280;41540;57.880;12.164;2023-07-28T10:00:25;99047.38;;;22.60;nan
55664;BME280;41540;57.880;12.164;2023-07-28T10:10:25;99240.59;;;23.78;nan
55664;BME280;41540;57.880;12.164;2023-07-28T10:20:37;99099.34;;;21.40;nan
55664;BME280;41540;57.880;12.164;2023-07-28T10:30:59;99032.75;;;23.01;nan
55664;BME280;41540;57.880;12.164;2023-07-28T10:41:14;99065.16;;;22.72;nan
55664;BME280;41540;57.880;12.164;2023-07-28T10:51:21;99115.63;;;23.30;nan
55664;BME280;41540;57.880;12.164;2023-07-28T11:01:30;99129.94;;;22.62;nan
55664;BME280;41540;57.880;12.164;2023-07-28T11:11:33;99078.94;;;23.40;nan
55664;BME280;41540;57.880;12.164;2023-07-28T11:21:38;99102.00;;;23.97;nan
55664;BME280;41540;57.880;12.164;2023-07-28T11:31:41;99116.66;;;23.88;nan
55664;BME280;41540;57.880;12.164;2023-07-28T11:41:41;99077.34;;;23.96;nan
55664;BME280;41540;57.880;12.164;2023-07-28T11:51:48;98955.09;;;22.89;nan
55664;BME280;41540;57.880;12.164;2023-07-28T12:01:55;98911.34;;;21.26;nan
55664;BME280;41540;57.880;12.164;2023-07-28T12:11:59;98777.75;;;20.45;nan
55664;BME280;41540;57.880;12.164;2023-07-28T12:22:00;98790.00;;;21.78;nan
55664;BME280;41540;57.880;12.164;2023-07-28T12:32:00;99062.94;;;23.27;nan
55664;BME280;41540;57.880;12.164;2023-07-28T12:42:00;99099.34;;;21.93;nan
55664;BME280;41540;57.880;12.164;2023-07-28T12:52:03;99110.28;;;23.00;nan
55664;BME280;41540;57.880;12.164;2023-07-28T13:02:04;99123.59;;;23.14;nan
55664;BME280;41540;57.880;12.164;2023-07-28T13:12:04;99185.53;;;22.26;nan
55664;BME280;41540;57.880;12.164;2023-07-28T13:22:05;99066.50;;;22.80;nan
55664;BME280;41540;57.880;12.164;2023-07-28T13:32:16;99060.69;;;21.58;nan
55664;BME280;41540;57.880;12.164;2023-07-28T13:42:17;99116.13;;;22.41;nan
55664;BME280;41540;57.880;12.164;2023-07-28T13:52:17;99135.09;;;22.32;nan
55664;BME280;41540;57.880;12.164;2023-07-28T14:02:17;99118.53;;;22.46;nan
55664;BME280;41540;57.880;12.164;2023-07-28T14:12:18;99091.63;;;22.55;nan
55664;BME280;41540;57.880;12.164;2023-07-28T14:22:18;99081.19;;;22.20;nan
55664;BME280;41540;57.880;12.164;2023-07-28T14:32:19;98881.09;;;21.50;nan
55664;BME280;41540;57.880;12.164;2023-07-28T14:42:19;99017.16;;;21.85;nan
55664;BME280;41540;57.880;12.164;2023-07-28T14:52:20;99143.19;;;21.94;nan
55664;BME280;41540;57.880;12.164;2023-07-28T15:02:20;99113.53;;;21.38;nan
55664;BME280;41540;57.880;12.164;2023-07-28T15:12:20;99215.16;;;21.61;nan
55664;BME280;41540;57.880;12.164;2023-07-28T15:22:21;99179.50;;;21.71;nan
55664;BME280;41540;57.880;12.164;2023-07-28T15:32:21;99161.69;;;21.03;nan
55664;BME280;41540;57.880;12.164;2023-07-28T15:42:22;99143.94;;;20.71;nan
55664;BME280;41540;57.880;12.164;2023-07-28T15:52:22;99031.13;;;20.82;nan
55664;BME280;41540;57.880;12.164;2023-07-28T16:02:23;98978.19;;;20.15;nan
55664;BME280;41540;57.880;12.164;2023-07-28T16:12:23;98833.50;;;19.42;nan
55664;BME280;41540;57.880;12.164;2023-07-28T16:22:24;98701.13;;;19.10;nan
55664;BME280;41540;57.880;12.164;2023-07-28T16:32:24;99614.16;;;18.64;nan
55664;BME280;41540;57.880;12.164;2023-07-28T16:42:24;99821.56;;;18.57;nan
55664;BME280;41540;57.880;12.164;2023-07-28T16:52:25;99798.91;;;18.21;nan
55664;BME280;41540;57.880;12.164;2023-07-28T17:02:27;99792.31;;;18.05;nan
55664;BME280;41540;57.880;12.164;2023-07-28T17:12:27;99772.84;;;17.79;nan
55664;BME280;41540;57.880;12.164;2023-07-28T17:22:27;99729.00;;;17.12;nan
55664;BME280;41540;57.880;12.164;2023-07-28T17:32:28;99814.69;;;17.45;nan
55664;BME280;41540;57.880;12.164;2023-07-28T17:42:28;99839.50;;;17.27;nan
55664;BME280;41540;57.880;12.164;2023-07-28T17:52:30;99862.03;;;16.92;nan
55664;BME280;41540;57.880;12.164;2023-07-28T18:02:30;99882.31;;;16.77;nan
55664;BME280;41540;57.880;12.164;2023-07-28T18:12:31;99892.28;;;16.57;nan
55664;BME280;41540;57.880;12.164;2023-07-28T18:22:32;99914.50;;;16.31;nan
55664;BME280;41540;57.880;12.164;2023-07-28T18:32:33;99905.47;;;15.96;nan
55664;BME280;41540;57.880;12.164;2023-07-28T18:42:33;59027.81;;;-145.61;100.00
55664;BME280;41540;57.880;12.164;2023-07-28T18:52:34;59027.81;;;-145.61;100.00
55664;BME280;41540;57.880;12.164;2023-07-28T19:02:34;59027.81;;;-145.61;100.00
55664;BME280;41540;57.880;12.164;2023-07-28T19:12:34;59027.81;;;-145.61;100.00
55664;BME280;41540;57.880;12.164;2023-07-28T19:22:35;59027.81;;;-145.61;100.00
55664;BME280;41540;57.880;12.164;2023-07-28T19:32:35;59027.81;;;-145.61;100.00
55664;BME280;41540;57.880;12.164;2023-07-28T19:42:37;59027.81;;;-145.61;100.00
55664;BME280;41540;57.880;12.164;2023-07-28T19:52:38;59027.81;;;-145.61;100.00
55664;BME280;41540;57.880;12.164;2023-07-28T20:02:39;59027.81;;;-145.61;100.00
55664;BME280;41540;57.880;12.164;2023-07-28T20:12:40;59027.81;;;-145.61;100.00
55664;BME280;41540;57.880;12.164;2023-07-28T20:22:40;59027.81;;;-145.61;100.00
55664;BME280;41540;57.880;12.164;2023-07-28T20:32:40;59027.81;;;-145.61;100.00
55664;BME280;41540;57.880;12.164;2023-07-28T20:42:41;59027.81;;;-145.61;100.00
55664;BME280;41540;57.880;12.164;2023-07-28T20:52:41;59027.81;;;-145.61;100.00
55664;BME280;41540;57.880;12.164;2023-07-28T21:02:42;59027.81;;;-145.61;100.00
55664;BME280;41540;57.880;12.164;2023-07-28T21:12:42;59027.81;;;-145.61;100.00
55664;BME280;41540;57.880;12.164;2023-07-28T21:22:43;59027.81;;;-145.61;100.00
55664;BME280;41540;57.880;12.164;2023-07-28T21:32:43;59027.81;;;-145.61;100.00
55664;BME280;41540;57.880;12.164;2023-07-28T21:42:44;59027.81;;;-145.61;100.00
55664;BME280;41540;57.880;12.164;2023-07-28T21:52:44;59027.81;;;-145.61;100.00
55664;BME280;41540;57.880;12.164;2023-07-28T22:02:45;59027.81;;;-145.61;100.00
55664;BME280;41540;57.880;12.164;2023-07-28T22:12:45;59027.81;;;-145.61;100.00
55664;BME280;41540;57.880;12.164;2023-07-28T22:22:46;59027.81;;;-145.61;100.00
55664;BME280;41540;57.880;12.164;2023-07-28T22:32:46;59027.81;;;-145.61;100.00
55664;BME280;41540;57.880;12.164;2023-07-28T22:42:47;59027.81;;;-145.61;100.00
55664;BME280;41540;57.880;12.164;2023-07-28T22:52:47;59027.81;;;-145.61;100.00
55664;BME280;41540;57.880;12.164;2023-07-28T23:02:49;59027.81;;;-145.61;100.00
55664;BME280;41540;57.880;12.164;2023-07-28T23:12:49;59027.81;;;-145.61;100.00
55664;BME280;41540;57.880;12.164;2023-07-28T23:22:50;59027.81;;;-145.61;100.00
55664;BME280;41540;57.880;12.164;2023-07-28T23:32:50;59027.81;;;-145.61;100.00
55664;BME280;41540;57.880;12.164;2023-07-28T23:42:50;59027.81;;;-145.61;100.00
55664;BME280;41540;57.880;12.164;2023-07-28T23:52:51;59027.81;;;-145.61;100.00
